sensor_id;sensor_type;location;lat;lon;timestamp;pressure;altitude;pressure_sealevel;temperature;humidity
62789;BME280;66401;42.016;21.454;2023-03-03T00:01:04;98299.84;;;9.62;81.91
62789;BME280;66401;42.016;21.454;2023-03-03T00:03:30;98289.56;;;9.54;82.01
62789;BME280;66401;42.016;21.454;2023-03-03T00:05:56;98295.28;;;9.64;81.30
62789;BME280;66401;42.016;21.454;2023-03-03T00:28:47;98279.25;;;9.61;81.56
62789;BME280;66401;42.016;21.454;2023-03-03T00:31:29;98280.13;;;9.68;80.82
62789;BME280;66401;42.016;21.454;2023-03-03T00:34:03;98273.66;;;9.64;82.11
62789;BME280;66401;42.016;21.454;2023-03-03T00:36:41;98271.81;;;9.58;82.40
62789;BME280;66401;42.016;21.454;2023-03-03T00:41:42;98265.25;;;9.62;82.03
62789;BME280;66401;42.016;21.454;2023-03-03T00:44:40;98266.13;;;9.69;82.05
62789;BME280;66401;42.016;21.454;2023-03-03T00:49:55;98254.78;;;9.55;81.04
62789;BME280;66401;42.016;21.454;2023-03-03T00:52:26;98256.84;;;9.60;81.50
62789;BME280;66401;42.016;21.454;2023-03-03T00:54:53;98246.81;;;9.57;81.13
62789;BME280;66401;42.016;21.454;2023-03-03T00:57:18;98256.84;;;9.60;80.96
62789;BME280;66401;42.016;21.454;2023-03-03T00:59:44;98253.81;;;9.56;81.69
62789;BME280;66401;42.016;21.454;2023-03-03T01:02:09;98243.56;;;9.55;81.07
62789;BME280;66401;42.016;21.454;2023-03-03T01:04:35;98244.81;;;9.59;81.53
62789;BME280;66401;42.016;21.454;2023-03-03T01:07:00;98241.72;;;9.49;81.58
62789;BME280;66401;42.016;21.454;2023-03-03T01:09:26;98240.81;;;9.56;80.68
62789;BME280;66401;42.016;21.454;2023-03-03T01:11:52;98245.38;;;9.54;81.44
62789;BME280;66401;42.016;21.454;2023-03-03T01:14:17;98238.94;;;9.50;80.95
62789;BME280;66401;42.016;21.454;2023-03-03T01:16:43;98240.00;;;9.56;81.27
62789;BME280;66401;42.016;21.454;2023-03-03T01:19:08;98235.97;;;9.53;81.57
62789;BME280;66401;42.016;21.454;2023-03-03T01:21:34;98236.75;;;9.54;81.57
62789;BME280;66401;42.016;21.454;2023-03-03T01:23:59;98230.72;;;9.46;81.42
62789;BME280;66401;42.016;21.454;2023-03-03T01:26:26;98228.34;;;9.52;81.29
62789;BME280;66401;42.016;21.454;2023-03-03T01:28:51;98226.63;;;9.59;81.27
62789;BME280;66401;42.016;21.454;2023-03-03T01:31:17;98224.34;;;9.49;81.49
62789;BME280;66401;42.016;21.454;2023-03-03T01:33:42;98214.97;;;9.33;82.37
62789;BME280;66401;42.016;21.454;2023-03-03T01:36:08;98219.19;;;9.34;82.38
62789;BME280;66401;42.016;21.454;2023-03-03T01:38:35;98217.72;;;9.46;81.60
62789;BME280;66401;42.016;21.454;2023-03-03T01:41:01;98211.88;;;9.44;81.20
62789;BME280;66401;42.016;21.454;2023-03-03T01:43:31;98212.97;;;9.35;82.51
62789;BME280;66401;42.016;21.454;2023-03-03T01:48:33;98202.84;;;9.40;82.09
62789;BME280;66401;42.016;21.454;2023-03-03T01:51:25;98207.31;;;9.46;81.16
62789;BME280;66401;42.016;21.454;2023-03-03T01:54:03;98212.97;;;9.35;82.49
62789;BME280;66401;42.016;21.454;2023-03-03T01:56:29;98210.22;;;9.37;82.25
62789;BME280;66401;42.016;21.454;2023-03-03T01:59:04;98209.78;;;9.33;82.37
62789;BME280;66401;42.016;21.454;2023-03-03T02:01:32;98212.38;;;9.33;82.27
62789;BME280;66401;42.016;21.454;2023-03-03T02:03:58;98209.16;;;9.31;82.31
62789;BME280;66401;42.016;21.454;2023-03-03T02:06:27;98214.25;;;9.39;81.71
62789;BME280;66401;42.016;21.454;2023-03-03T02:09:02;98211.38;;;9.34;82.72
62789;BME280;66401;42.016;21.454;2023-03-03T02:11:31;98200.88;;;9.42;82.53
62789;BME280;66401;42.016;21.454;2023-03-03T02:13:57;98212.03;;;9.36;82.81
62789;BME280;66401;42.016;21.454;2023-03-03T02:16:24;98205.25;;;9.42;81.82
62789;BME280;66401;42.016;21.454;2023-03-03T02:18:50;98207.13;;;9.48;81.84
62789;BME280;66401;42.016;21.454;2023-03-03T02:21:19;98208.66;;;9.42;82.79
62789;BME280;66401;42.016;21.454;2023-03-03T02:24:42;98200.88;;;9.42;82.44
62789;BME280;66401;42.016;21.454;2023-03-03T02:27:09;98199.03;;;9.36;82.85
62789;BME280;66401;42.016;21.454;2023-03-03T02:29:35;98204.22;;;9.36;82.63
62789;BME280;66401;42.016;21.454;2023-03-03T02:32:01;98205.03;;;9.37;82.32
62789;BME280;66401;42.016;21.454;2023-03-03T02:34:27;98199.81;;;9.37;82.68
62789;BME280;66401;42.016;21.454;2023-03-03T02:36:53;98199.81;;;9.37;82.99
62789;BME280;66401;42.016;21.454;2023-03-03T02:39:24;98194.56;;;9.30;82.95
62789;BME280;66401;42.016;21.454;2023-03-03T02:42:15;98198.50;;;9.26;83.76
62789;BME280;66401;42.016;21.454;2023-03-03T02:44:44;98198.88;;;9.23;83.45
62789;BME280;66401;42.016;21.454;2023-03-03T02:47:10;98202.91;;;9.26;82.79
62789;BME280;66401;42.016;21.454;2023-03-03T02:49:36;98200.13;;;9.27;82.91
62789;BME280;66401;42.016;21.454;2023-03-03T02:52:04;98199.03;;;9.36;83.09
62789;BME280;66401;42.016;21.454;2023-03-03T02:54:29;98204.22;;;9.36;82.47
62789;BME280;66401;42.016;21.454;2023-03-03T02:56:56;98195.78;;;9.34;82.47
62789;BME280;66401;42.016;21.454;2023-03-03T02:59:22;98202.97;;;9.32;82.40
62789;BME280;66401;42.016;21.454;2023-03-03T03:01:48;98195.34;;;9.31;82.86
62789;BME280;66401;42.016;21.454;2023-03-03T03:04:17;98203.78;;;9.33;82.64
62789;BME280;66401;42.016;21.454;2023-03-03T03:06:43;98201.63;;;9.36;82.37
62789;BME280;66401;42.016;21.454;2023-03-03T03:09:09;98201.25;;;9.39;82.18
62789;BME280;66401;42.016;21.454;2023-03-03T03:11:36;98199.88;;;9.43;81.43
62789;BME280;66401;42.016;21.454;2023-03-03T03:14:03;98199.38;;;9.33;82.10
62789;BME280;66401;42.016;21.454;2023-03-03T03:16:29;98197.78;;;9.32;82.53
62789;BME280;66401;42.016;21.454;2023-03-03T03:18:56;98197.78;;;9.32;82.32
62789;BME280;66401;42.016;21.454;2023-03-03T03:21:22;98194.97;;;9.34;81.85
62789;BME280;66401;42.016;21.454;2023-03-03T03:23:47;98198.16;;;9.29;82.40
62789;BME280;66401;42.016;21.454;2023-03-03T03:26:13;98196.53;;;9.28;82.23
62789;BME280;66401;42.016;21.454;2023-03-03T03:28:39;98159.16;;;9.08;82.81
62789;BME280;66401;42.016;21.454;2023-03-03T03:31:05;98184.16;;;9.30;82.57
62789;BME280;66401;42.016;21.454;2023-03-03T03:33:32;98184.88;;;9.24;82.64
62789;BME280;66401;42.016;21.454;2023-03-03T03:35:58;98186.50;;;9.25;82.90
62789;BME280;66401;42.016;21.454;2023-03-03T03:38:24;98167.31;;;9.26;82.25
62789;BME280;66401;42.016;21.454;2023-03-03T03:40:52;98187.75;;;9.29;82.70
62789;BME280;66401;42.016;21.454;2023-03-03T03:43:17;98178.53;;;9.27;83.49
62789;BME280;66401;42.016;21.454;2023-03-03T03:45:44;98175.75;;;9.28;82.71
62789;BME280;66401;42.016;21.454;2023-03-03T03:48:10;98182.59;;;9.36;82.41
62789;BME280;66401;42.016;21.454;2023-03-03T03:50:36;98187.63;;;9.37;83.06
62789;BME280;66401;42.016;21.454;2023-03-03T03:53:03;98191.16;;;9.30;82.93
62789;BME280;66401;42.016;21.454;2023-03-03T03:55:28;98185.38;;;9.34;82.38
62789;BME280;66401;42.016;21.454;2023-03-03T03:57:55;98187.38;;;9.32;82.37
62789;BME280;66401;42.016;21.454;2023-03-03T04:00:21;98191.22;;;9.36;82.82
62789;BME280;66401;42.016;21.454;2023-03-03T04:02:46;98189.97;;;9.32;82.11
62789;BME280;66401;42.016;21.454;2023-03-03T04:05:11;98190.47;;;9.21;83.41
62789;BME280;66401;42.016;21.454;2023-03-03T04:07:37;98188.56;;;9.30;82.37
62789;BME280;66401;42.016;21.454;2023-03-03T04:10:03;98188.25;;;9.39;82.25
62789;BME280;66401;42.016;21.454;2023-03-03T04:12:29;98187.38;;;9.32;83.39
62789;BME280;66401;42.016;21.454;2023-03-03T04:15:00;98183.56;;;9.28;82.98
62789;BME280;66401;42.016;21.454;2023-03-03T04:17:25;98189.34;;;9.30;83.53
62789;BME280;66401;42.016;21.454;2023-03-03T04:19:53;98189.56;;;9.29;83.74
62789;BME280;66401;42.016;21.454;2023-03-03T04:22:19;98189.47;;;9.43;83.20
62789;BME280;66401;42.016;21.454;2023-03-03T04:24:44;98187.63;;;9.59;82.49
62789;BME280;66401;42.016;21.454;2023-03-03T04:27:12;98182.66;;;9.42;82.92
62789;BME280;66401;42.016;21.454;2023-03-03T04:29:39;98186.19;;;9.35;82.98
62789;BME280;66401;42.016;21.454;2023-03-03T04:32:05;98195.78;;;9.34;82.88
62789;BME280;66401;42.016;21.454;2023-03-03T04:34:30;98192.84;;;9.37;83.19
62789;BME280;66401;42.016;21.454;2023-03-03T04:36:56;98193.88;;;9.43;82.92
62789;BME280;66401;42.016;21.454;2023-03-03T04:39:21;98193.00;;;9.57;82.21
62789;BME280;66401;42.016;21.454;2023-03-03T04:41:47;98189.97;;;9.54;81.63
62789;BME280;66401;42.016;21.454;2023-03-03T04:44:12;98190.66;;;9.41;82.94
62789;BME280;66401;42.016;21.454;2023-03-03T04:46:38;98192.19;;;9.35;83.02
62789;BME280;66401;42.016;21.454;2023-03-03T04:49:03;98195.34;;;9.31;82.37
62789;BME280;66401;42.016;21.454;2023-03-03T04:51:31;98198.75;;;9.31;82.93
62789;BME280;66401;42.016;21.454;2023-03-03T04:53:56;98195.56;;;9.29;82.94
62789;BME280;66401;42.016;21.454;2023-03-03T04:56:22;98189.34;;;9.30;82.84
62789;BME280;66401;42.016;21.454;2023-03-03T04:58:47;98194.94;;;9.27;83.26
62789;BME280;66401;42.016;21.454;2023-03-03T05:01:13;98198.16;;;9.29;83.47
62789;BME280;66401;42.016;21.454;2023-03-03T05:03:41;98197.53;;;9.27;84.10
62789;BME280;66401;42.016;21.454;2023-03-03T05:06:07;98191.34;;;9.28;82.95
62789;BME280;66401;42.016;21.454;2023-03-03T05:08:32;98203.34;;;9.29;83.85
62789;BME280;66401;42.016;21.454;2023-03-03T05:10:58;98201.47;;;9.44;82.73
62789;BME280;66401;42.016;21.454;2023-03-03T05:13:27;98198.66;;;9.39;83.58
62789;BME280;66401;42.016;21.454;2023-03-03T05:15:54;98195.34;;;9.31;82.99
62789;BME280;66401;42.016;21.454;2023-03-03T05:18:23;98202.34;;;9.30;83.11
62789;BME280;66401;42.016;21.454;2023-03-03T05:20:50;98197.38;;;9.35;83.45
62789;BME280;66401;42.016;21.454;2023-03-03T05:23:16;98173.69;;;9.24;82.48
62789;BME280;66401;42.016;21.454;2023-03-03T05:25:42;98202.28;;;9.45;82.09
62789;BME280;66401;42.016;21.454;2023-03-03T05:28:09;98202.84;;;9.40;82.89
62789;BME280;66401;42.016;21.454;2023-03-03T05:30:35;98207.78;;;9.35;83.01
62789;BME280;66401;42.016;21.454;2023-03-03T05:33:02;98191.84;;;9.38;82.04
62789;BME280;66401;42.016;21.454;2023-03-03T05:35:28;98201.16;;;9.33;82.86
62789;BME280;66401;42.016;21.454;2023-03-03T05:37:53;98200.19;;;9.34;82.40
62789;BME280;66401;42.016;21.454;2023-03-03T05:40:19;98207.97;;;9.34;82.85
62789;BME280;66401;42.016;21.454;2023-03-03T05:42:45;98211.88;;;9.44;82.86
62789;BME280;66401;42.016;21.454;2023-03-03T05:45:11;98206.25;;;9.41;82.73
62789;BME280;66401;42.016;21.454;2023-03-03T05:47:37;98216.91;;;9.46;82.45
62789;BME280;66401;42.016;21.454;2023-03-03T05:50:03;98212.69;;;9.45;81.55
62789;BME280;66401;42.016;21.454;2023-03-03T05:52:29;98219.31;;;9.48;81.98
62789;BME280;66401;42.016;21.454;2023-03-03T05:54:54;98234.72;;;9.49;81.92
62789;BME280;66401;42.016;21.454;2023-03-03T05:57:20;98230.75;;;9.53;81.90
62789;BME280;66401;42.016;21.454;2023-03-03T05:59:45;98235.53;;;9.50;82.01
62789;BME280;66401;42.016;21.454;2023-03-03T06:02:11;98235.75;;;9.33;81.58
62789;BME280;66401;42.016;21.454;2023-03-03T06:04:36;98238.56;;;9.32;82.59
62789;BME280;66401;42.016;21.454;2023-03-03T06:07:02;98240.66;;;9.43;81.45
62789;BME280;66401;42.016;21.454;2023-03-03T06:09:27;98242.22;;;9.37;82.46
62789;BME280;66401;42.016;21.454;2023-03-03T06:11:53;98240.31;;;9.46;82.74
62789;BME280;66401;42.016;21.454;2023-03-03T06:14:19;98236.16;;;9.52;82.33
62789;BME280;66401;42.016;21.454;2023-03-03T06:16:46;98247.25;;;9.60;81.18
62789;BME280;66401;42.016;21.454;2023-03-03T06:19:13;98242.41;;;9.57;81.65
62789;BME280;66401;42.016;21.454;2023-03-03T06:21:38;98246.81;;;9.57;81.02
62789;BME280;66401;42.016;21.454;2023-03-03T06:24:04;98246.00;;;9.56;81.15
62789;BME280;66401;42.016;21.454;2023-03-03T06:26:31;98246.44;;;9.60;81.66
62789;BME280;66401;42.016;21.454;2023-03-03T06:28:57;98256.34;;;9.71;81.51
62789;BME280;66401;42.016;21.454;2023-03-03T06:31:22;98252.44;;;9.82;81.93
62789;BME280;66401;42.016;21.454;2023-03-03T06:33:48;98252.63;;;9.80;81.32
62789;BME280;66401;42.016;21.454;2023-03-03T06:36:13;98254.59;;;9.78;81.88
62789;BME280;66401;42.016;21.454;2023-03-03T06:38:39;98253.00;;;9.77;81.79
62789;BME280;66401;42.016;21.454;2023-03-03T06:41:04;98253.81;;;9.78;82.11
62789;BME280;66401;42.016;21.454;2023-03-03T06:43:35;98246.94;;;9.70;82.47
62789;BME280;66401;42.016;21.454;2023-03-03T06:46:01;98251.44;;;9.83;81.64
62789;BME280;66401;42.016;21.454;2023-03-03T06:48:27;98254.09;;;9.89;81.80
62789;BME280;66401;42.016;21.454;2023-03-03T06:50:52;98249.91;;;9.88;81.15
62789;BME280;66401;42.016;21.454;2023-03-03T06:53:18;98255.97;;;9.95;80.53
62789;BME280;66401;42.016;21.454;2023-03-03T06:55:44;98255.97;;;9.95;80.87
62789;BME280;66401;42.016;21.454;2023-03-03T06:58:17;98253.59;;;10.00;81.38
62789;BME280;66401;42.016;21.454;2023-03-03T07:00:48;98254.38;;;10.01;81.46
62789;BME280;66401;42.016;21.454;2023-03-03T07:03:21;98256.44;;;10.06;81.42
62789;BME280;66401;42.016;21.454;2023-03-03T07:05:48;98258.97;;;9.99;80.84
62789;BME280;66401;42.016;21.454;2023-03-03T07:08:19;98259.19;;;9.97;81.24
62789;BME280;66401;42.016;21.454;2023-03-03T07:10:45;98258.06;;;10.07;80.33
62789;BME280;66401;42.016;21.454;2023-03-03T07:13:17;98258.66;;;10.09;80.91
62789;BME280;66401;42.016;21.454;2023-03-03T07:15:43;98229.56;;;9.98;80.95
62789;BME280;66401;42.016;21.454;2023-03-03T07:18:39;98251.28;;;10.12;80.18
62789;BME280;66401;42.016;21.454;2023-03-03T07:21:29;98243.16;;;10.22;80.01
62789;BME280;66401;42.016;21.454;2023-03-03T07:23:56;98252.63;;;10.29;80.42
62789;BME280;66401;42.016;21.454;2023-03-03T07:26:26;98253.81;;;10.27;79.98
62789;BME280;66401;42.016;21.454;2023-03-03T07:29:02;98253.72;;;10.14;79.78
62789;BME280;66401;42.016;21.454;2023-03-03T07:31:33;98256.91;;;10.16;80.50
62789;BME280;66401;42.016;21.454;2023-03-03T07:34:00;98251.31;;;10.19;79.47
62789;BME280;66401;42.016;21.454;2023-03-03T07:36:29;98250.28;;;10.13;79.79
62789;BME280;66401;42.016;21.454;2023-03-03T07:39:13;98249.72;;;10.18;80.07
62789;BME280;66401;42.016;21.454;2023-03-03T07:41:43;98255.81;;;10.25;78.97
62789;BME280;66401;42.016;21.454;2023-03-03T07:44:19;98239.72;;;10.21;79.53
62789;BME280;66401;42.016;21.454;2023-03-03T07:46:47;98254.81;;;10.26;80.15
62789;BME280;66401;42.016;21.454;2023-03-03T07:49:44;98255.44;;;10.28;79.43
62789;BME280;66401;42.016;21.454;2023-03-03T07:52:28;98256.53;;;10.19;80.52
62789;BME280;66401;42.016;21.454;2023-03-03T07:54:57;98257.53;;;10.18;80.07
62789;BME280;66401;42.016;21.454;2023-03-03T07:57:27;98249.53;;;10.19;79.25
62789;BME280;66401;42.016;21.454;2023-03-03T08:02:44;98245.66;;;10.09;79.40
62789;BME280;66401;42.016;21.454;2023-03-03T08:05:41;98260.06;;;10.11;79.71
62789;BME280;66401;42.016;21.454;2023-03-03T08:08:29;98253.66;;;10.07;79.94
62789;BME280;66401;42.016;21.454;2023-03-03T08:10:57;98250.00;;;10.01;79.66
62789;BME280;66401;42.016;21.454;2023-03-03T08:18:44;98254.78;;;9.98;80.62
62789;BME280;66401;42.016;21.454;2023-03-03T08:23:44;98252.25;;;10.04;81.48
62789;BME280;66401;42.016;21.454;2023-03-03T08:26:10;98261.84;;;10.04;81.75
62789;BME280;66401;42.016;21.454;2023-03-03T08:28:39;98256.19;;;10.00;81.60
62789;BME280;66401;42.016;21.454;2023-03-03T08:31:04;98258.84;;;10.07;81.58
62789;BME280;66401;42.016;21.454;2023-03-03T08:33:30;98252.72;;;9.93;82.08
62789;BME280;66401;42.016;21.454;2023-03-03T08:35:55;98261.28;;;9.87;81.78
62789;BME280;66401;42.016;21.454;2023-03-03T08:38:21;98258.31;;;9.90;82.18
62789;BME280;66401;42.016;21.454;2023-03-03T08:40:47;98256.97;;;9.94;82.01
62789;BME280;66401;42.016;21.454;2023-03-03T08:43:14;98260.66;;;10.07;81.89
62789;BME280;66401;42.016;21.454;2023-03-03T08:45:46;98262.06;;;10.09;81.38
62789;BME280;66401;42.016;21.454;2023-03-03T08:48:12;98262.66;;;10.04;81.29
62789;BME280;66401;42.016;21.454;2023-03-03T08:50:39;98262.00;;;10.02;80.94
62789;BME280;66401;42.016;21.454;2023-03-03T08:53:05;98259.31;;;9.89;81.79
62789;BME280;66401;42.016;21.454;2023-03-03T08:55:31;98264.88;;;10.08;81.42
62789;BME280;66401;42.016;21.454;2023-03-03T08:57:57;98261.75;;;10.19;81.90
62789;BME280;66401;42.016;21.454;2023-03-03T09:00:23;98248.50;;;10.14;80.62
62789;BME280;66401;42.016;21.454;2023-03-03T09:02:49;98260.25;;;10.31;80.32
62789;BME280;66401;42.016;21.454;2023-03-03T09:05:15;98266.50;;;10.37;80.43
62789;BME280;66401;42.016;21.454;2023-03-03T09:07:42;98266.38;;;10.45;80.20
62789;BME280;66401;42.016;21.454;2023-03-03T09:10:10;98257.97;;;10.49;78.96
62789;BME280;66401;42.016;21.454;2023-03-03T09:12:39;98260.84;;;10.61;79.84
62789;BME280;66401;42.016;21.454;2023-03-03T09:17:49;98256.53;;;10.75;79.12
62789;BME280;66401;42.016;21.454;2023-03-03T09:20:34;98259.72;;;10.77;79.38
62789;BME280;66401;42.016;21.454;2023-03-03T09:23:31;98263.78;;;10.86;80.42
62789;BME280;66401;42.016;21.454;2023-03-03T09:26:21;98264.03;;;10.98;78.18
62789;BME280;66401;42.016;21.454;2023-03-03T09:28:48;98261.63;;;10.96;78.06
62789;BME280;66401;42.016;21.454;2023-03-03T09:36:51;98265.94;;;11.24;77.11
62789;BME280;66401;42.016;21.454;2023-03-03T09:39:18;98264.75;;;11.20;75.64
62789;BME280;66401;42.016;21.454;2023-03-03T09:44:29;98265.59;;;11.40;74.17
62789;BME280;66401;42.016;21.454;2023-03-03T09:50:36;98256.47;;;11.84;73.39
62789;BME280;66401;42.016;21.454;2023-03-03T09:56:33;98252.19;;;15.43;61.84
62789;BME280;66401;42.016;21.454;2023-03-03T10:01:39;98242.69;;;18.20;51.16
62789;BME280;66401;42.016;21.454;2023-03-03T10:11:59;98242.03;;;19.56;45.39
62789;BME280;66401;42.016;21.454;2023-03-03T10:17:16;98237.44;;;23.87;37.59
62789;BME280;66401;42.016;21.454;2023-03-03T10:22:59;98231.53;;;19.39;45.71
62789;BME280;66401;42.016;21.454;2023-03-03T10:25:41;98227.56;;;18.32;47.47
62789;BME280;66401;42.016;21.454;2023-03-03T10:33:11;98215.31;;;22.28;38.41
62789;BME280;66401;42.016;21.454;2023-03-03T10:44:28;98200.63;;;19.39;46.11
62789;BME280;66401;42.016;21.454;2023-03-03T10:49:36;98187.81;;;17.50;48.25
62789;BME280;66401;42.016;21.454;2023-03-03T10:52:32;98184.06;;;16.01;52.87
62789;BME280;66401;42.016;21.454;2023-03-03T11:05:59;98185.22;;;14.62;55.15
62789;BME280;66401;42.016;21.454;2023-03-03T11:11:52;98165.41;;;17.02;49.05
62789;BME280;66401;42.016;21.454;2023-03-03T11:23:18;98165.00;;;15.41;53.71
62789;BME280;66401;42.016;21.454;2023-03-03T11:31:56;98154.59;;;15.23;55.56
62789;BME280;66401;42.016;21.454;2023-03-03T11:37:23;98155.16;;;14.46;55.55
62789;BME280;66401;42.016;21.454;2023-03-03T11:39:54;98150.28;;;13.88;56.42
62789;BME280;66401;42.016;21.454;2023-03-03T11:43:12;98138.41;;;13.42;58.38
62789;BME280;66401;42.016;21.454;2023-03-03T11:45:47;98141.00;;;13.42;58.97
62789;BME280;66401;42.016;21.454;2023-03-03T11:48:42;98129.53;;;13.68;58.24
62789;BME280;66401;42.016;21.454;2023-03-03T11:51:14;98125.59;;;14.02;58.30
62789;BME280;66401;42.016;21.454;2023-03-03T11:53:58;98133.16;;;14.47;55.84
62789;BME280;66401;42.016;21.454;2023-03-03T11:56:44;98125.41;;;14.59;56.29
62789;BME280;66401;42.016;21.454;2023-03-03T12:07:57;98099.53;;;15.46;53.85
62789;BME280;66401;42.016;21.454;2023-03-03T12:12:42;98091.53;;;16.63;49.46
62789;BME280;66401;42.016;21.454;2023-03-03T12:29:05;98095.88;;;16.17;48.95
62789;BME280;66401;42.016;21.454;2023-03-03T12:40:35;98083.56;;;16.06;51.83
62789;BME280;66401;42.016;21.454;2023-03-03T12:45:56;98088.75;;;16.29;50.47
62789;BME280;66401;42.016;21.454;2023-03-03T12:48:39;98083.69;;;16.51;49.46
62789;BME280;66401;42.016;21.454;2023-03-03T12:56:55;98075.72;;;16.75;49.32
62789;BME280;66401;42.016;21.454;2023-03-03T13:02:48;98078.97;;;17.61;47.80
62789;BME280;66401;42.016;21.454;2023-03-03T13:05:28;98071.59;;;17.96;45.91
62789;BME280;66401;42.016;21.454;2023-03-03T13:08:11;98079.41;;;17.91;46.04
62789;BME280;66401;42.016;21.454;2023-03-03T13:16:10;98069.59;;;16.17;49.30
62789;BME280;66401;42.016;21.454;2023-03-03T13:21:54;98077.22;;;14.72;53.10
62789;BME280;66401;42.016;21.454;2023-03-03T13:24:57;98072.09;;;14.47;54.96
62789;BME280;66401;42.016;21.454;2023-03-03T13:27:27;98067.28;;;14.62;54.71
62789;BME280;66401;42.016;21.454;2023-03-03T13:30:22;98065.25;;;14.76;52.62
62789;BME280;66401;42.016;21.454;2023-03-03T13:32:58;98071.38;;;14.88;53.42
62789;BME280;66401;42.016;21.454;2023-03-03T13:35:37;98065.06;;;14.77;53.22
62789;BME280;66401;42.016;21.454;2023-03-03T13:38:12;98063.00;;;14.31;54.72
62789;BME280;66401;42.016;21.454;2023-03-03T13:40:44;98063.53;;;14.21;55.47
62789;BME280;66401;42.016;21.454;2023-03-03T13:43:25;98067.41;;;14.19;55.56
62789;BME280;66401;42.016;21.454;2023-03-03T13:51:39;98065.19;;;13.79;57.30
62789;BME280;66401;42.016;21.454;2023-03-03T13:57:47;98056.78;;;13.95;57.05
62789;BME280;66401;42.016;21.454;2023-03-03T14:05:37;98058.94;;;13.62;56.02
62789;BME280;66401;42.016;21.454;2023-03-03T14:10:46;98038.25;;;13.35;55.50
62789;BME280;66401;42.016;21.454;2023-03-03T14:19:02;98050.47;;;13.10;56.14
62789;BME280;66401;42.016;21.454;2023-03-03T14:21:37;98057.06;;;13.19;56.43
62789;BME280;66401;42.016;21.454;2023-03-03T14:24:18;98054.28;;;13.14;57.02
62789;BME280;66401;42.016;21.454;2023-03-03T14:26:52;98057.78;;;13.33;56.64
62789;BME280;66401;42.016;21.454;2023-03-03T14:31:53;98050.09;;;13.81;54.94
62789;BME280;66401;42.016;21.454;2023-03-03T14:36:48;98055.44;;;14.41;54.01
62789;BME280;66401;42.016;21.454;2023-03-03T14:39:33;98057.25;;;14.59;52.21
62789;BME280;66401;42.016;21.454;2023-03-03T14:42:00;98059.91;;;14.71;52.74
62789;BME280;66401;42.016;21.454;2023-03-03T14:47:25;98058.66;;;14.73;52.83
62789;BME280;66401;42.016;21.454;2023-03-03T14:49:51;98064.16;;;14.53;52.58
62789;BME280;66401;42.016;21.454;2023-03-03T14:52:31;98060.28;;;14.38;54.05
62789;BME280;66401;42.016;21.454;2023-03-03T14:54:59;98057.63;;;14.08;54.10
62789;BME280;66401;42.016;21.454;2023-03-03T15:05:19;98054.94;;;13.78;55.66
62789;BME280;66401;42.016;21.454;2023-03-03T15:07:48;98055.88;;;13.65;55.68
62789;BME280;66401;42.016;21.454;2023-03-03T15:10:26;98048.75;;;13.54;56.67
62789;BME280;66401;42.016;21.454;2023-03-03T15:12:52;98059.63;;;13.51;56.40
62789;BME280;66401;42.016;21.454;2023-03-03T15:15:21;98054.81;;;13.48;57.62
62789;BME280;66401;42.016;21.454;2023-03-03T15:26:43;98074.16;;;13.46;57.50
62789;BME280;66401;42.016;21.454;2023-03-03T15:40:01;98078.09;;;13.31;57.72
62789;BME280;66401;42.016;21.454;2023-03-03T15:48:25;98076.81;;;13.15;57.13
62789;BME280;66401;42.016;21.454;2023-03-03T16:02:13;98080.09;;;13.04;58.47
62789;BME280;66401;42.016;21.454;2023-03-03T16:04:58;98095.00;;;13.03;57.62
62789;BME280;66401;42.016;21.454;2023-03-03T16:07:38;98095.47;;;12.94;58.87
62789;BME280;66401;42.016;21.454;2023-03-03T16:10:31;98104.38;;;12.79;60.28
62789;BME280;66401;42.016;21.454;2023-03-03T16:16:05;98104.03;;;12.63;60.47
62789;BME280;66401;42.016;21.454;2023-03-03T16:24:37;98113.53;;;12.57;59.57
62789;BME280;66401;42.016;21.454;2023-03-03T16:26:59;98120.38;;;12.51;61.98
62789;BME280;66401;42.016;21.454;2023-03-03T16:29:40;98130.03;;;12.51;62.55
62789;BME280;66401;42.016;21.454;2023-03-03T16:32:39;98130.09;;;12.38;63.85
62789;BME280;66401;42.016;21.454;2023-03-03T16:35:23;98138.06;;;12.56;62.54
62789;BME280;66401;42.016;21.454;2023-03-03T16:46:06;98151.56;;;12.40;64.23
62789;BME280;66401;42.016;21.454;2023-03-03T16:48:56;98154.22;;;12.26;62.43
62789;BME280;66401;42.016;21.454;2023-03-03T16:51:52;98175.34;;;12.18;65.18
62789;BME280;66401;42.016;21.454;2023-03-03T16:57:33;98163.69;;;11.74;66.88
62789;BME280;66401;42.016;21.454;2023-03-03T17:00:15;98174.16;;;11.81;66.70
62789;BME280;66401;42.016;21.454;2023-03-03T17:05:52;98163.69;;;11.74;67.92
62789;BME280;66401;42.016;21.454;2023-03-03T17:08:47;98164.09;;;11.65;68.63
62789;BME280;66401;42.016;21.454;2023-03-03T17:25:22;98192.22;;;11.69;72.29
62789;BME280;66401;42.016;21.454;2023-03-03T17:28:24;98195.22;;;11.73;70.25
62789;BME280;66401;42.016;21.454;2023-03-03T17:42:18;98196.22;;;11.79;70.72
62789;BME280;66401;42.016;21.454;2023-03-03T17:45:08;98207.03;;;11.62;72.17
62789;BME280;66401;42.016;21.454;2023-03-03T18:01:05;98234.31;;;11.53;72.48
62789;BME280;66401;42.016;21.454;2023-03-03T18:09:01;98238.34;;;11.62;71.96
62789;BME280;66401;42.016;21.454;2023-03-03T18:19:26;98247.97;;;11.55;72.94
62789;BME280;66401;42.016;21.454;2023-03-03T18:37:48;98256.38;;;11.57;72.57
62789;BME280;66401;42.016;21.454;2023-03-03T18:40:29;98259.59;;;11.39;69.40
62789;BME280;66401;42.016;21.454;2023-03-03T18:42:55;98265.34;;;11.22;71.26
62789;BME280;66401;42.016;21.454;2023-03-03T18:48:13;98267.44;;;10.92;70.48
62789;BME280;66401;42.016;21.454;2023-03-03T18:50:46;98264.53;;;10.80;70.45
62789;BME280;66401;42.016;21.454;2023-03-03T18:55:49;98267.53;;;10.77;69.87
62789;BME280;66401;42.016;21.454;2023-03-03T19:00:46;98261.66;;;10.62;69.66
62789;BME280;66401;42.016;21.454;2023-03-03T19:05:54;98260.28;;;10.66;70.15
62789;BME280;66401;42.016;21.454;2023-03-03T19:08:42;98267.63;;;10.55;70.99